Latest Weather Observations for Brisbane

IDQ60801

Issued at 6:02 am EST Monday 5 December 2016 (issued every 30 minutes, with the page automatically refreshed every 10 minutes)

About weather observations | Map of weather stations | Latest weather observations for QLD | Other Formats
Station Details ID: 040913 Name: BRISBANE Lat: -27.48 Lon: 153.04 Height: 8.13 m
Data from the previous 72 hours. | See also: Recent months at Brisbane
Date/Time
EST
Temp
°C
App
Temp
°C
Dew
Point
°C
Rel
Hum
%
Delta-T
°C
Wind Press
QNH
hPa
Press
MSL
hPa
Rain since
9am
mm
Dir  Spd
km/h
Gust
km/h
Spd
kts
Gust
kts
05/06:00am 24.1 26.9 20.8 82 2.2 NNE 7 13 4 7 - - -
05/05:30am 23.4 26.3 20.7 85 1.8 NNW 6 9 3 5 1015.2 1015.2 0.0
05/05:00am 23.1 26.0 20.6 86 1.6 N 6 15 3 8 1015.0 1015.0 0.0
05/04:30am 23.2 26.1 20.7 86 1.6 NNE 6 13 3 7 1014.4 1014.4 0.0
05/04:00am 23.2 26.1 20.7 86 1.6 NNE 6 11 3 6 1014.0 1014.0 0.0
05/03:30am 23.4 26.4 20.9 86 1.6 NNE 6 13 3 7 1014.1 1014.1 0.0
05/03:00am 23.5 26.5 20.8 85 1.8 NNW 6 13 3 7 1014.2 1014.2 0.0
05/02:30am 23.9 27.1 21.2 85 1.8 NNE 6 13 3 7 1014.0 1014.0 0.0
05/02:00am 23.9 27.5 21.2 85 1.8 NNE 4 6 2 3 1014.1 1014.1 0.0
05/01:30am 24.1 27.7 21.2 84 1.9 N 4 9 2 5 1014.3 1014.3 0.0
05/01:00am 24.2 27.8 21.3 84 1.9 NE 4 11 2 6 1014.3 1014.3 0.0
05/12:30am 24.4 28.1 21.5 84 1.9 NE 4 7 2 4 1014.6 1014.6 0.0
05/12:00am 24.5 28.5 21.4 83 2.0 NE 2 7 1 4 1014.8 1014.8 0.0
 
Date/Time
EST
Temp
°C
App
Temp
°C
Dew
Point
°C
Rel
Hum
%
Delta-T
°C
Wind Press
QNH
hPa
Press
MSL
hPa
Rain since
9am
mm
Dir  Spd
km/h
Gust
km/h
Spd
kts
Gust
kts
04/11:30pm 24.6 28.3 21.5 83 2.1 NE 4 9 2 5 1014.8 1014.8 0.0
04/11:00pm 24.8 28.1 21.5 82 2.2 NE 6 9 3 5 1014.9 1014.9 0.0
04/10:30pm 24.9 28.1 21.6 82 2.2 NE 7 13 4 7 1015.0 1015.0 0.0
04/10:00pm 24.9 28.2 21.4 81 2.3 NE 6 15 3 8 1014.9 1014.9 0.0
04/09:30pm 25.0 28.0 21.3 80 2.4 NNE 7 13 4 7 1014.8 1014.8 0.0
04/09:00pm 25.2 28.0 21.5 80 2.5 NNE 9 17 5 9 1014.4 1014.4 0.0
04/08:30pm 25.3 28.6 21.8 81 2.3 NNE 7 15 4 8 1014.5 1014.5 0.0
04/08:00pm 25.3 27.8 21.8 81 2.3 NNE 11 19 6 10 1014.1 1014.1 0.0
04/07:30pm 25.4 28.7 21.9 81 2.3 NE 7 19 4 10 1013.8 1013.8 0.0
04/07:00pm 25.4 28.7 21.9 81 2.3 NE 7 17 4 9 1013.6 1013.6 0.0
04/06:30pm 25.6 28.2 21.9 80 2.5 NE 11 24 6 13 1013.5 1013.5 0.0
04/06:00pm 25.8 28.3 21.7 78 2.7 NE 11 22 6 12 1013.4 1013.4 0.0
04/05:30pm 26.4 28.0 21.4 74 3.3 NE 15 32 8 17 1013.0 1013.0 0.0
04/05:00pm 26.9 28.7 21.2 71 3.8 NNE 13 24 7 13 1013.0 1013.0 0.0
04/04:30pm 27.8 29.8 21.6 69 4.1 NNE 13 26 7 14 1012.6 1012.6 0.0
04/04:00pm 28.3 30.3 21.6 67 4.5 NNE 13 24 7 13 1012.7 1012.7 0.0
04/03:30pm 28.8 31.6 21.6 65 4.8 NNE 9 24 5 13 1012.9 1012.9 0.0
04/03:00pm 28.9 31.0 21.7 65 4.8 NE 13 24 7 13 1012.8 1012.8 0.0
04/02:30pm 29.2 31.1 21.4 63 5.2 NE 13 26 7 14 1013.0 1013.0 0.0
04/02:00pm 29.3 31.3 20.7 59 5.7 NE 11 24 6 13 1013.3 1013.3 0.0
04/01:30pm 30.2 32.6 21.6 60 5.8 NE 11 17 6 9 1013.3 1013.3 0.0
04/01:00pm 29.6 31.7 21.0 60 5.7 ENE 11 20 6 11 1013.5 1013.5 0.0
04/12:30pm 29.4 31.0 20.8 60 5.7 ENE 13 24 7 13 1013.9 1013.9 0.0
04/12:00pm 29.3 31.4 21.0 61 5.5 ENE 11 17 6 9 1014.4 1014.4 0.0
04/11:30am 29.0 30.8 20.4 59 5.7 NE 11 20 6 11 1014.8 1014.8 0.0
04/11:00am 29.0 30.7 20.2 59 5.8 ENE 11 20 6 11 1015.0 1015.0 0.0
04/10:30am 29.1 30.9 20.3 59 5.8 ENE 11 22 6 12 1015.3 1015.3 0.0
04/10:00am 28.9 30.9 19.2 55 6.3 ENE 7 15 4 8 1015.4 1015.4 0.0
04/09:30am 28.0 29.5 19.8 61 5.3 ENE 11 17 6 9 1015.6 1015.6 0.0
04/09:00am 28.4 31.1 20.2 61 5.4 NE 6 20 3 11 1015.8 1015.8 21.2
04/08:30am 27.4 29.6 19.7 63 5.0 NNE 7 13 4 7 1015.8 1015.8 21.2
04/08:00am 27.3 29.7 20.1 64 4.7 ENE 7 13 4 7 1015.8 1015.8 21.2
04/07:30am 26.4 29.3 20.7 71 3.7 NE 6 11 3 6 1015.8 1015.8 21.2
04/07:00am 25.3 28.9 20.5 75 3.1 ENE 2 7 1 4 1015.7 1015.7 21.2
04/06:30am 24.7 28.6 20.4 77 2.8 CALM 0 0 0 0 1015.9 1015.9 21.2
04/06:00am 22.6 26.1 19.6 83 1.9 CALM 0 0 0 0 1015.6 1015.6 21.2
04/05:30am 21.1 24.4 19.2 89 1.2 CALM 0 0 0 0 1015.2 1015.2 21.2
04/05:00am 20.3 23.4 18.6 90 1.1 CALM 0 0 0 0 1015.2 1015.2 21.2
04/04:30am 20.6 23.0 18.7 89 1.2 SE 4 11 2 6 1015.0 1015.0 21.2
04/04:00am 20.9 22.9 18.8 88 1.3 SW 6 9 3 5 1014.1 1014.1 21.2
04/03:30am 21.0 23.1 18.9 88 1.3 WSW 6 13 3 7 1013.8 1013.8 21.0
04/03:00am 21.1 23.5 18.9 87 1.4 SW 4 9 2 5 1013.7 1013.7 21.0
04/02:30am 21.6 24.3 19.5 88 1.3 WSW 4 11 2 6 1013.8 1013.8 21.0
04/02:00am 22.3 24.8 19.8 86 1.6 WSW 6 11 3 6 1013.5 1013.5 21.0
04/01:30am 23.3 26.4 20.2 83 2.0 WSW 4 9 2 5 1013.8 1013.8 21.0
04/01:00am 23.4 26.8 20.9 86 1.6 W 4 6 2 3 1014.1 1014.1 21.0
04/12:30am 23.5 27.1 21.2 87 1.5 NNW 4 11 2 6 1014.9 1014.9 21.0
04/12:23am 23.4 26.4 20.9 86 1.6 N 6 13 3 7 1014.3 1014.3 21.0
04/12:00am 23.7 26.8 21.0 85 1.8 W 6 13 3 7 1016.3 1016.3 21.0
 
Date/Time
EST
Temp
°C
App
Temp
°C
Dew
Point
°C
Rel
Hum
%
Delta-T
°C
Wind Press
QNH
hPa
Press
MSL
hPa
Rain since
9am
mm
Dir  Spd
km/h
Gust
km/h
Spd
kts
Gust
kts
03/11:30pm 23.7 26.8 21.0 85 1.8 NNW 6 9 3 5 1015.7 1015.7 21.0
03/11:00pm 23.5 27.3 21.0 86 1.6 N 2 6 1 3 1016.5 1016.5 21.0
03/10:30pm 22.5 26.0 19.5 83 1.9 CALM 0 0 0 0 1016.8 1016.8 21.0
03/10:00pm 23.2 26.2 19.2 78 2.5 SSE 2 4 1 2 1017.3 1017.3 21.0
03/09:30pm 23.6 26.0 18.9 75 3.0 S 4 6 2 3 1017.6 1017.6 21.0
03/09:00pm 24.3 26.4 18.9 72 3.4 W 6 7 3 4 1017.7 1017.7 21.0
03/08:30pm 24.5 27.1 18.4 69 3.9 W 2 6 1 3 1017.3 1017.3 21.0
03/08:28pm 24.5 27.1 18.4 69 3.9 W 2 6 1 3 1017.1 1017.1 21.0
03/08:00pm 25.0 26.1 18.0 65 4.4 NNW 9 22 5 12 1015.1 1015.1 21.0
03/07:30pm 23.5 23.2 18.2 72 3.3 E 17 33 9 18 1013.4 1013.4 21.0
03/07:11pm 22.7 22.7 19.7 83 1.9 ENE 19 35 10 19 1012.7 1012.7 21.0
03/07:00pm 22.5 22.6 20.4 88 1.4 E 20 35 11 19 1014.8 1014.8 21.0
03/06:53pm 22.6 24.1 20.5 88 1.4 E 13 32 7 17 1015.1 1015.1 21.0
03/06:30pm 22.7 25.6 20.6 88 1.4 SSW 6 13 3 7 1017.1 1017.1 20.0
03/06:04pm 23.6 26.6 22.0 91 1.1 W 9 22 5 12 1015.9 1015.9 16.8
03/06:00pm 23.6 26.6 21.9 90 1.1 NW 9 22 5 12 1012.9 1012.9 16.8
03/05:43pm 23.4 26.0 22.0 92 0.9 NE 11 30 6 16 1011.4 1011.4 15.4
03/05:30pm 22.8 25.1 21.4 92 0.9 ENE 11 26 6 14 1013.5 1013.5 14.0
03/05:00pm 26.5 29.3 21.5 74 3.3 SSE 9 24 5 13 1013.7 1013.7 0.0
03/04:55pm 26.2 27.7 21.2 74 3.3 NE 15 28 8 15 1012.1 1012.1 0.0
03/04:30pm 26.7 27.2 20.8 70 3.9 NE 19 33 10 18 1009.9 1009.9 0.0
03/04:00pm 28.5 30.2 21.0 64 5.0 NE 13 32 7 17 1009.8 1009.8 0.0
03/03:30pm 28.6 29.9 20.9 63 5.1 NE 15 30 8 16 1010.2 1010.2 0.0
03/03:00pm 29.1 30.0 20.8 61 5.5 NE 17 30 9 16 1010.8 1010.8 0.0
03/02:30pm 29.3 30.8 21.3 62 5.3 NNE 15 33 8 18 1011.2 1011.2 0.0
03/02:00pm 29.5 31.2 20.9 60 5.7 NNE 13 26 7 14 1011.9 1011.9 0.0
03/01:30pm 29.8 31.9 21.7 61 5.5 NNE 13 24 7 13 1012.5 1012.5 0.0
03/01:00pm 29.7 32.1 21.6 61 5.4 NNE 11 26 6 14 1012.9 1012.9 0.0
03/12:30pm 29.8 31.9 21.7 61 5.5 NE 13 26 7 14 1013.3 1013.3 0.0
03/12:00pm 29.7 32.4 21.4 61 5.6 NNE 9 19 5 10 1013.5 1013.5 0.0
03/11:30am 29.5 32.7 21.7 63 5.2 ENE 7 19 4 10 1013.9 1013.9 0.0
03/11:00am 29.6 33.1 22.1 64 5.1 NE 7 13 4 7 1014.2 1014.2 0.0
03/10:30am 28.5 31.8 21.5 66 4.7 NE 6 11 3 6 1014.7 1014.7 0.0
03/10:00am 27.3 30.9 21.3 69 4.0 NE 4 9 2 5 1015.2 1015.2 0.0
03/09:30am 26.9 30.6 21.4 72 3.7 NNE 4 11 2 6 1015.3 1015.3 0.0
03/09:00am 26.4 29.7 21.4 74 3.3 NNE 6 11 3 6 1015.3 1015.3 0.0
03/08:30am 25.9 29.7 21.6 77 2.9 NE 4 7 2 4 1015.3 1015.3 0.0
03/08:00am 25.4 29.1 21.5 79 2.6 N 4 6 2 3 1015.2 1015.2 0.0
03/07:30am 25.2 28.9 21.5 80 2.5 NW 4 7 2 4 1015.1 1015.1 0.0
03/07:00am 25.0 28.6 21.3 80 2.4 NNW 4 9 2 5 1014.6 1014.6 0.0
03/06:30am 24.9 28.2 21.4 81 2.3 NNW 6 9 3 5 1014.4 1014.4 0.0
03/06:00am 24.6 28.3 21.5 83 2.1 N 4 9 2 5 1014.0 1014.0 0.0
03/05:30am 24.4 28.0 21.3 83 2.0 N 4 9 2 5 1013.6 1013.6 0.0
03/05:00am 24.3 27.9 21.2 83 2.0 NNW 4 13 2 7 1013.2 1013.2 0.0
03/04:30am 24.3 27.6 21.4 84 1.9 N 6 9 3 5 1012.6 1012.6 0.0
03/04:00am 24.4 27.7 21.5 84 1.9 NNE 6 13 3 7 1012.3 1012.3 0.0
03/03:30am 24.4 28.1 21.5 84 1.9 NNW 4 13 2 7 1012.0 1012.0 0.0
03/03:00am 24.6 28.0 21.7 84 1.9 N 6 11 3 6 1011.8 1011.8 0.0
03/02:30am 24.7 28.7 22.0 85 1.8 NNE 4 7 2 4 1012.0 1012.0 0.0
03/02:00am 24.6 28.5 21.9 85 1.8 NNE 4 9 2 5 1012.1 1012.1 0.0
03/01:30am 24.5 28.5 22.0 86 1.7 NE 4 9 2 5 1012.1 1012.1 0.0
03/01:00am 24.6 28.2 22.1 86 1.7 NE 6 9 3 5 1012.4 1012.4 0.0
03/12:30am 24.6 28.5 21.9 85 1.8 NE 4 11 2 6 1012.4 1012.4 0.0
03/12:00am 24.7 28.3 22.0 85 1.8 NE 6 11 3 6 1012.7 1012.7 0.0
 
Date/Time
EST
Temp
°C
App
Temp
°C
Dew
Point
°C
Rel
Hum
%
Delta-T
°C
Wind Press
QNH
hPa
Press
MSL
hPa
Rain since
9am
mm
Dir  Spd
km/h
Gust
km/h
Spd
kts
Gust
kts
02/11:30pm 24.9 28.4 22.2 85 1.8 NNE 7 17 4 9 1012.6 1012.6 0.0
02/11:00pm 25.1 28.7 22.4 85 1.8 NE 7 13 4 7 1012.9 1012.9 0.0
02/10:30pm 25.1 28.7 22.4 85 1.8 NE 7 15 4 8 1012.8 1012.8 0.0
02/10:00pm 25.2 28.0 22.3 84 1.9 NE 11 17 6 9 1013.0 1013.0 0.0
02/09:30pm 25.3 28.0 22.2 83 2.1 ENE 11 19 6 10 1013.2 1013.2 0.0
02/09:00pm 25.3 28.0 22.2 83 2.1 NE 11 19 6 10 1012.9 1012.9 0.0
02/08:30pm 25.2 28.7 22.1 83 2.1 NNE 7 17 4 9 1012.4 1012.4 0.0
02/08:00pm 25.3 28.3 22.0 82 2.2 NE 9 24 5 13 1011.8 1011.8 0.0
02/07:30pm 25.4 27.9 21.7 80 2.5 NE 11 19 6 10 1011.4 1011.4 0.0
02/07:00pm 25.7 28.2 21.8 79 2.6 NE 11 22 6 12 1011.0 1011.0 0.0
02/06:30pm 25.9 27.9 21.6 77 2.9 NNE 13 22 7 12 1010.7 1010.7 0.0
02/06:00pm 26.5 28.9 21.5 74 3.3 NE 11 20 6 11 1010.2 1010.2 0.0
02/05:30pm 27.2 30.1 21.7 72 3.7 NE 9 20 5 11 1009.8 1009.8 0.0
02/05:00pm 27.7 29.7 21.5 69 4.1 NE 13 22 7 12 1009.5 1009.5 0.0
02/04:30pm 28.5 30.4 21.3 65 4.8 NE 13 22 7 12 1009.3 1009.3 0.0
02/04:00pm 28.9 30.8 21.4 64 5.0 NNE 13 28 7 15 1009.2 1009.2 0.0
02/03:30pm 28.8 30.2 21.1 63 5.1 NE 15 24 8 13 1009.2 1009.2 0.0
02/03:00pm 29.4 31.7 21.4 62 5.4 NNE 11 26 6 14 1009.6 1009.6 0.0
02/02:30pm 29.2 30.7 21.2 62 5.3 NE 15 28 8 15 1009.7 1009.7 0.0
02/02:00pm 29.4 31.3 21.4 62 5.4 NE 13 30 7 16 1010.0 1010.0 0.0
02/01:30pm 29.5 31.7 21.2 61 5.5 NE 11 20 6 11 1010.1 1010.1 0.0
02/01:00pm 28.7 30.1 21.0 63 5.1 NE 15 24 8 13 1010.3 1010.3 0.0
02/12:30pm 29.2 30.9 20.9 61 5.5 ENE 13 22 7 12 1010.5 1010.5 0.0
02/12:00pm 28.9 30.8 20.6 61 5.5 NE 11 24 6 13 1010.8 1010.8 0.0
02/11:30am 29.3 31.3 20.7 59 5.7 NE 11 20 6 11 1011.1 1011.1 0.0
02/11:00am 29.1 30.3 20.0 58 6.0 ENE 13 20 7 11 1011.4 1011.4 0.0
02/10:30am 29.3 30.7 19.6 56 6.3 ENE 11 20 6 11 1011.6 1011.6 0.0
02/10:00am 29.5 31.8 19.5 55 6.5 NNW 6 11 3 6 1011.8 1011.8 0.0
02/09:30am 28.3 30.0 18.1 54 6.5 NE 6 11 3 6 1012.0 1012.0 0.0
02/09:00am 27.6 29.3 18.0 55 6.1 NW 6 15 3 8 1012.3 1012.3 0.4
02/08:30am 27.1 29.2 18.1 58 5.7 NE 4 9 2 5 1012.3 1012.3 0.4
02/08:00am 26.2 27.8 17.8 60 5.3 NNE 6 13 3 7 1012.5 1012.5 0.4
02/07:30am 25.3 27.6 17.7 62 4.8 NW 2 9 1 5 1012.6 1012.6 0.4
02/07:00am 25.0 27.1 18.2 66 4.3 NE 4 7 2 4 1012.4 1012.4 0.4
02/06:30am 24.3 26.3 17.8 67 4.1 NE 4 6 2 3 1012.3 1012.3 0.4

Other Formats:

Comma delimited format used in spreadsheet applications
http://www.bom.gov.au/fwo/IDQ60801/IDQ60801.94576.axf

JavaScript Object Notation format (JSON) in row-major order
http://www.bom.gov.au/fwo/IDQ60801/IDQ60801.94576.json